sensor_id;sensor_type;location;lat;lon;timestamp;temperature;humidity
37052;DHT22;22964;52.272;13.356;2023-03-01T00:01:14;2.10;56.50
37052;DHT22;22964;52.272;13.356;2023-03-01T00:03:40;2.10;56.60
37052;DHT22;22964;52.272;13.356;2023-03-01T00:06:06;2.10;56.60
37052;DHT22;22964;52.272;13.356;2023-03-01T00:08:32;2.10;56.60
37052;DHT22;22964;52.272;13.356;2023-03-01T00:13:30;2.00;56.70
37052;DHT22;22964;52.272;13.356;2023-03-01T00:15:56;2.00;56.70
37052;DHT22;22964;52.272;13.356;2023-03-01T00:18:21;2.00;56.70
37052;DHT22;22964;52.272;13.356;2023-03-01T00:20:52;2.00;56.80
37052;DHT22;22964;52.272;13.356;2023-03-01T00:23:18;1.90;56.90
37052;DHT22;22964;52.272;13.356;2023-03-01T00:25:44;1.90;57.00
37052;DHT22;22964;52.272;13.356;2023-03-01T00:28:10;1.90;57.00
37052;DHT22;22964;52.272;13.356;2023-03-01T00:30:36;1.90;57.00
37052;DHT22;22964;52.272;13.356;2023-03-01T00:33:03;1.80;57.00
37052;DHT22;22964;52.272;13.356;2023-03-01T00:35:29;1.90;57.00
37052;DHT22;22964;52.272;13.356;2023-03-01T00:37:57;1.80;57.00
37052;DHT22;22964;52.272;13.356;2023-03-01T00:40:27;1.80;57.20
37052;DHT22;22964;52.272;13.356;2023-03-01T00:42:54;1.80;57.20
37052;DHT22;22964;52.272;13.356;2023-03-01T00:45:20;1.70;57.10
37052;DHT22;22964;52.272;13.356;2023-03-01T00:47:46;1.70;57.20
37052;DHT22;22964;52.272;13.356;2023-03-01T00:50:13;1.70;57.30
37052;DHT22;22964;52.272;13.356;2023-03-01T00:52:39;1.70;57.40
37052;DHT22;22964;52.272;13.356;2023-03-01T00:55:06;1.70;57.40
37052;DHT22;22964;52.272;13.356;2023-03-01T00:57:33;1.70;57.40
37052;DHT22;22964;52.272;13.356;2023-03-01T00:59:59;1.60;57.30
37052;DHT22;22964;52.272;13.356;2023-03-01T01:02:25;1.60;57.40
37052;DHT22;22964;52.272;13.356;2023-03-01T01:04:51;1.60;57.40
37052;DHT22;22964;52.272;13.356;2023-03-01T01:07:18;1.60;57.50
37052;DHT22;22964;52.272;13.356;2023-03-01T01:09:45;1.50;57.50
37052;DHT22;22964;52.272;13.356;2023-03-01T01:12:11;1.50;57.60
37052;DHT22;22964;52.272;13.356;2023-03-01T01:14:37;1.50;57.60
37052;DHT22;22964;52.272;13.356;2023-03-01T01:17:03;1.50;57.60
37052;DHT22;22964;52.272;13.356;2023-03-01T01:19:29;1.50;57.50
37052;DHT22;22964;52.272;13.356;2023-03-01T01:21:55;1.50;57.60
37052;DHT22;22964;52.272;13.356;2023-03-01T01:24:21;1.40;57.50
37052;DHT22;22964;52.272;13.356;2023-03-01T01:26:47;1.40;57.50
37052;DHT22;22964;52.272;13.356;2023-03-01T01:29:13;1.40;57.50
37052;DHT22;22964;52.272;13.356;2023-03-01T01:31:40;1.40;57.60
37052;DHT22;22964;52.272;13.356;2023-03-01T01:34:09;1.40;57.60
37052;DHT22;22964;52.272;13.356;2023-03-01T01:36:37;1.30;57.60
37052;DHT22;22964;52.272;13.356;2023-03-01T01:39:04;1.30;57.60
37052;DHT22;22964;52.272;13.356;2023-03-01T01:41:30;1.30;57.70
37052;DHT22;22964;52.272;13.356;2023-03-01T01:44:18;1.30;57.80
37052;DHT22;22964;52.272;13.356;2023-03-01T01:47:00;1.20;57.90
37052;DHT22;22964;52.272;13.356;2023-03-01T01:52:16;1.20;57.80
37052;DHT22;22964;52.272;13.356;2023-03-01T01:57:25;1.20;57.70
37052;DHT22;22964;52.272;13.356;2023-03-01T01:59:56;1.20;57.90
37052;DHT22;22964;52.272;13.356;2023-03-01T02:02:24;1.20;57.80
37052;DHT22;22964;52.272;13.356;2023-03-01T02:04:55;1.10;57.80
37052;DHT22;22964;52.272;13.356;2023-03-01T02:07:27;1.10;57.80
37052;DHT22;22964;52.272;13.356;2023-03-01T02:09:53;1.10;57.80
37052;DHT22;22964;52.272;13.356;2023-03-01T02:12:21;1.10;57.90
37052;DHT22;22964;52.272;13.356;2023-03-01T02:14:48;1.00;57.90
37052;DHT22;22964;52.272;13.356;2023-03-01T02:17:16;1.00;57.90
37052;DHT22;22964;52.272;13.356;2023-03-01T02:20:23;1.00;58.00
37052;DHT22;22964;52.272;13.356;2023-03-01T02:22:53;1.00;58.20
37052;DHT22;22964;52.272;13.356;2023-03-01T02:30:39;1.00;58.30
37052;DHT22;22964;52.272;13.356;2023-03-01T02:33:26;1.00;58.20
37052;DHT22;22964;52.272;13.356;2023-03-01T02:35:53;1.00;58.20
37052;DHT22;22964;52.272;13.356;2023-03-01T02:38:21;0.90;58.20
37052;DHT22;22964;52.272;13.356;2023-03-01T02:40:49;0.90;58.30
37052;DHT22;22964;52.272;13.356;2023-03-01T02:43:16;0.90;58.30
37052;DHT22;22964;52.272;13.356;2023-03-01T02:45:52;0.90;58.20
37052;DHT22;22964;52.272;13.356;2023-03-01T02:48:19;0.90;58.20
37052;DHT22;22964;52.272;13.356;2023-03-01T02:53:32;0.80;58.10
37052;DHT22;22964;52.272;13.356;2023-03-01T02:56:01;0.80;58.20
37052;DHT22;22964;52.272;13.356;2023-03-01T02:58:27;0.80;58.20
37052;DHT22;22964;52.272;13.356;2023-03-01T03:00:53;0.70;58.20
37052;DHT22;22964;52.272;13.356;2023-03-01T03:03:20;0.80;58.30
37052;DHT22;22964;52.272;13.356;2023-03-01T03:05:47;0.70;58.30
37052;DHT22;22964;52.272;13.356;2023-03-01T03:08:14;0.70;58.30
37052;DHT22;22964;52.272;13.356;2023-03-01T03:10:42;0.70;58.50
37052;DHT22;22964;52.272;13.356;2023-03-01T03:13:13;0.70;58.40
37052;DHT22;22964;52.272;13.356;2023-03-01T03:15:40;0.70;58.40
37052;DHT22;22964;52.272;13.356;2023-03-01T03:18:10;0.70;58.40
37052;DHT22;22964;52.272;13.356;2023-03-01T03:20:36;0.70;58.40
37052;DHT22;22964;52.272;13.356;2023-03-01T03:23:03;0.60;58.40
37052;DHT22;22964;52.272;13.356;2023-03-01T03:25:29;0.60;58.40
37052;DHT22;22964;52.272;13.356;2023-03-01T03:27:56;0.60;58.50
37052;DHT22;22964;52.272;13.356;2023-03-01T03:30:25;0.60;58.50
37052;DHT22;22964;52.272;13.356;2023-03-01T03:32:51;0.60;58.60
37052;DHT22;22964;52.272;13.356;2023-03-01T03:35:21;0.50;58.50
37052;DHT22;22964;52.272;13.356;2023-03-01T03:37:47;0.60;58.70
37052;DHT22;22964;52.272;13.356;2023-03-01T03:44:15;0.50;58.90
37052;DHT22;22964;52.272;13.356;2023-03-01T03:46:40;0.50;58.60
37052;DHT22;22964;52.272;13.356;2023-03-01T03:49:06;0.50;58.70
37052;DHT22;22964;52.272;13.356;2023-03-01T03:51:32;0.50;58.80
37052;DHT22;22964;52.272;13.356;2023-03-01T03:53:57;0.50;58.90
37052;DHT22;22964;52.272;13.356;2023-03-01T03:56:23;0.40;58.80
37052;DHT22;22964;52.272;13.356;2023-03-01T03:58:52;0.40;58.90
37052;DHT22;22964;52.272;13.356;2023-03-01T04:01:18;0.40;58.90
37052;DHT22;22964;52.272;13.356;2023-03-01T04:03:44;0.40;59.00
37052;DHT22;22964;52.272;13.356;2023-03-01T04:06:15;0.40;59.00
37052;DHT22;22964;52.272;13.356;2023-03-01T04:08:41;0.40;59.00
37052;DHT22;22964;52.272;13.356;2023-03-01T04:11:07;0.40;59.00
37052;DHT22;22964;52.272;13.356;2023-03-01T04:13:53;0.30;59.00
37052;DHT22;22964;52.272;13.356;2023-03-01T04:16:19;0.40;59.10
37052;DHT22;22964;52.272;13.356;2023-03-01T04:18:45;0.30;59.00
37052;DHT22;22964;52.272;13.356;2023-03-01T04:21:11;0.30;59.10
37052;DHT22;22964;52.272;13.356;2023-03-01T04:23:38;0.30;59.00
37052;DHT22;22964;52.272;13.356;2023-03-01T04:26:04;0.30;59.10
37052;DHT22;22964;52.272;13.356;2023-03-01T04:28:32;0.30;59.10
37052;DHT22;22964;52.272;13.356;2023-03-01T04:31:03;0.30;59.20
37052;DHT22;22964;52.272;13.356;2023-03-01T04:33:42;0.30;59.30
37052;DHT22;22964;52.272;13.356;2023-03-01T04:36:09;0.30;59.30
37052;DHT22;22964;52.272;13.356;2023-03-01T04:38:37;0.30;59.30
37052;DHT22;22964;52.272;13.356;2023-03-01T04:41:05;0.30;59.40
37052;DHT22;22964;52.272;13.356;2023-03-01T04:43:31;0.30;59.50
37052;DHT22;22964;52.272;13.356;2023-03-01T04:46:08;0.20;59.40
37052;DHT22;22964;52.272;13.356;2023-03-01T04:48:38;0.20;59.60
37052;DHT22;22964;52.272;13.356;2023-03-01T04:51:05;0.20;59.60
37052;DHT22;22964;52.272;13.356;2023-03-01T04:53:31;0.20;59.60
37052;DHT22;22964;52.272;13.356;2023-03-01T04:55:58;0.20;59.60
37052;DHT22;22964;52.272;13.356;2023-03-01T04:58:25;0.20;59.70
37052;DHT22;22964;52.272;13.356;2023-03-01T05:00:52;0.20;59.70
37052;DHT22;22964;52.272;13.356;2023-03-01T05:03:18;0.20;59.70
37052;DHT22;22964;52.272;13.356;2023-03-01T05:05:45;0.20;59.70
37052;DHT22;22964;52.272;13.356;2023-03-01T05:08:12;0.20;59.70
37052;DHT22;22964;52.272;13.356;2023-03-01T05:10:45;0.20;59.70
37052;DHT22;22964;52.272;13.356;2023-03-01T05:13:12;0.20;59.70
37052;DHT22;22964;52.272;13.356;2023-03-01T05:15:57;0.20;59.70
37052;DHT22;22964;52.272;13.356;2023-03-01T05:18:24;0.20;59.80
37052;DHT22;22964;52.272;13.356;2023-03-01T05:20:53;0.20;59.70
37052;DHT22;22964;52.272;13.356;2023-03-01T05:23:22;0.20;59.80
37052;DHT22;22964;52.272;13.356;2023-03-01T05:25:48;0.20;60.00
37052;DHT22;22964;52.272;13.356;2023-03-01T05:28:14;0.20;60.20
37052;DHT22;22964;52.272;13.356;2023-03-01T05:30:41;0.20;60.40
37052;DHT22;22964;52.272;13.356;2023-03-01T05:33:08;0.30;60.50
37052;DHT22;22964;52.272;13.356;2023-03-01T05:35:42;0.40;60.60
37052;DHT22;22964;52.272;13.356;2023-03-01T05:38:12;0.40;60.70
37052;DHT22;22964;52.272;13.356;2023-03-01T05:40:46;0.50;60.70
37052;DHT22;22964;52.272;13.356;2023-03-01T05:43:14;0.50;60.70
37052;DHT22;22964;52.272;13.356;2023-03-01T05:45:40;0.50;60.50
37052;DHT22;22964;52.272;13.356;2023-03-01T05:48:07;0.60;60.50
37052;DHT22;22964;52.272;13.356;2023-03-01T05:50:42;0.70;60.40
37052;DHT22;22964;52.272;13.356;2023-03-01T05:53:13;0.70;60.30
37052;DHT22;22964;52.272;13.356;2023-03-01T05:55:41;0.70;60.20
37052;DHT22;22964;52.272;13.356;2023-03-01T05:58:12;0.70;60.00
37052;DHT22;22964;52.272;13.356;2023-03-01T06:00:39;0.80;60.00
37052;DHT22;22964;52.272;13.356;2023-03-01T06:03:05;0.80;59.80
37052;DHT22;22964;52.272;13.356;2023-03-01T06:05:31;0.80;59.70
37052;DHT22;22964;52.272;13.356;2023-03-01T06:08:00;0.80;59.70
37052;DHT22;22964;52.272;13.356;2023-03-01T06:10:26;0.80;59.80
37052;DHT22;22964;52.272;13.356;2023-03-01T06:12:53;0.80;59.70
37052;DHT22;22964;52.272;13.356;2023-03-01T06:15:19;0.80;59.70
37052;DHT22;22964;52.272;13.356;2023-03-01T06:17:46;0.80;59.60
37052;DHT22;22964;52.272;13.356;2023-03-01T06:20:18;0.90;59.70
37052;DHT22;22964;52.272;13.356;2023-03-01T06:22:44;0.90;59.70
37052;DHT22;22964;52.272;13.356;2023-03-01T06:25:11;1.00;59.60
37052;DHT22;22964;52.272;13.356;2023-03-01T06:27:38;1.00;59.40
37052;DHT22;22964;52.272;13.356;2023-03-01T06:30:05;1.00;59.50
37052;DHT22;22964;52.272;13.356;2023-03-01T06:32:32;1.00;59.50
37052;DHT22;22964;52.272;13.356;2023-03-01T06:34:58;1.00;59.60
37052;DHT22;22964;52.272;13.356;2023-03-01T06:37:24;1.00;59.70
37052;DHT22;22964;52.272;13.356;2023-03-01T06:39:50;1.10;59.80
37052;DHT22;22964;52.272;13.356;2023-03-01T06:42:16;1.10;59.90
37052;DHT22;22964;52.272;13.356;2023-03-01T06:44:42;1.10;60.00
37052;DHT22;22964;52.272;13.356;2023-03-01T06:47:07;1.20;60.00
37052;DHT22;22964;52.272;13.356;2023-03-01T06:49:33;1.20;60.10
37052;DHT22;22964;52.272;13.356;2023-03-01T06:51:59;1.20;60.20
37052;DHT22;22964;52.272;13.356;2023-03-01T06:54:24;1.30;60.30
37052;DHT22;22964;52.272;13.356;2023-03-01T06:56:50;1.30;60.30
37052;DHT22;22964;52.272;13.356;2023-03-01T06:59:18;1.40;60.50
37052;DHT22;22964;52.272;13.356;2023-03-01T07:01:44;1.50;60.70
37052;DHT22;22964;52.272;13.356;2023-03-01T07:04:11;1.50;60.70
37052;DHT22;22964;52.272;13.356;2023-03-01T07:06:36;1.60;60.80
37052;DHT22;22964;52.272;13.356;2023-03-01T07:09:02;1.70;60.80
37052;DHT22;22964;52.272;13.356;2023-03-01T07:11:28;1.70;60.80
37052;DHT22;22964;52.272;13.356;2023-03-01T07:13:54;1.80;60.90
37052;DHT22;22964;52.272;13.356;2023-03-01T07:16:20;1.90;61.00
37052;DHT22;22964;52.272;13.356;2023-03-01T07:18:46;1.90;60.90
37052;DHT22;22964;52.272;13.356;2023-03-01T07:21:14;2.00;61.00
37052;DHT22;22964;52.272;13.356;2023-03-01T07:23:40;2.00;61.00
37052;DHT22;22964;52.272;13.356;2023-03-01T07:26:06;2.10;61.10
37052;DHT22;22964;52.272;13.356;2023-03-01T07:28:31;2.10;61.20
37052;DHT22;22964;52.272;13.356;2023-03-01T07:31:02;2.20;61.30
37052;DHT22;22964;52.272;13.356;2023-03-01T07:33:28;2.30;61.30
37052;DHT22;22964;52.272;13.356;2023-03-01T07:36:01;2.30;61.40
37052;DHT22;22964;52.272;13.356;2023-03-01T07:38:27;2.40;61.60
37052;DHT22;22964;52.272;13.356;2023-03-01T07:40:57;2.50;61.60
37052;DHT22;22964;52.272;13.356;2023-03-01T07:43:23;2.50;61.70
37052;DHT22;22964;52.272;13.356;2023-03-01T07:45:48;2.60;62.00
37052;DHT22;22964;52.272;13.356;2023-03-01T07:48:14;2.70;62.20
37052;DHT22;22964;52.272;13.356;2023-03-01T07:50:40;2.80;62.60
37052;DHT22;22964;52.272;13.356;2023-03-01T07:53:05;2.80;62.70
37052;DHT22;22964;52.272;13.356;2023-03-01T07:55:31;2.90;62.90
37052;DHT22;22964;52.272;13.356;2023-03-01T07:57:57;3.00;62.90
37052;DHT22;22964;52.272;13.356;2023-03-01T08:00:22;3.10;63.10
37052;DHT22;22964;52.272;13.356;2023-03-01T08:02:48;3.20;63.50
37052;DHT22;22964;52.272;13.356;2023-03-01T08:05:14;3.30;63.70
37052;DHT22;22964;52.272;13.356;2023-03-01T08:07:40;3.40;63.90
37052;DHT22;22964;52.272;13.356;2023-03-01T08:10:06;3.60;64.00
37052;DHT22;22964;52.272;13.356;2023-03-01T08:12:31;3.80;64.20
37052;DHT22;22964;52.272;13.356;2023-03-01T08:14:57;3.90;64.50
37052;DHT22;22964;52.272;13.356;2023-03-01T08:17:23;4.00;64.60
37052;DHT22;22964;52.272;13.356;2023-03-01T08:19:49;4.20;64.90
37052;DHT22;22964;52.272;13.356;2023-03-01T08:22:15;4.40;65.10
37052;DHT22;22964;52.272;13.356;2023-03-01T08:24:40;4.60;65.00
37052;DHT22;22964;52.272;13.356;2023-03-01T08:27:06;4.80;65.10
37052;DHT22;22964;52.272;13.356;2023-03-01T08:29:33;5.00;65.10
37052;DHT22;22964;52.272;13.356;2023-03-01T08:31:59;5.20;65.00
37052;DHT22;22964;52.272;13.356;2023-03-01T08:34:25;5.40;64.70
37052;DHT22;22964;52.272;13.356;2023-03-01T08:36:50;5.60;64.50
37052;DHT22;22964;52.272;13.356;2023-03-01T08:39:19;5.80;64.60
37052;DHT22;22964;52.272;13.356;2023-03-01T08:41:46;5.90;64.20
37052;DHT22;22964;52.272;13.356;2023-03-01T08:44:13;6.20;64.10
37052;DHT22;22964;52.272;13.356;2023-03-01T08:46:41;6.40;63.90
37052;DHT22;22964;52.272;13.356;2023-03-01T08:49:08;6.50;63.60
37052;DHT22;22964;52.272;13.356;2023-03-01T08:51:35;6.80;63.70
37052;DHT22;22964;52.272;13.356;2023-03-01T08:54:07;7.00;64.80
37052;DHT22;22964;52.272;13.356;2023-03-01T08:56:35;7.10;63.50
37052;DHT22;22964;52.272;13.356;2023-03-01T08:59:00;7.30;63.00
37052;DHT22;22964;52.272;13.356;2023-03-01T09:01:26;7.50;62.60
37052;DHT22;22964;52.272;13.356;2023-03-01T09:03:52;7.80;61.60
37052;DHT22;22964;52.272;13.356;2023-03-01T09:06:18;8.00;60.80
37052;DHT22;22964;52.272;13.356;2023-03-01T09:08:46;8.10;59.80
37052;DHT22;22964;52.272;13.356;2023-03-01T09:11:14;8.30;59.30
37052;DHT22;22964;52.272;13.356;2023-03-01T09:13:41;8.40;59.20
37052;DHT22;22964;52.272;13.356;2023-03-01T09:16:08;8.60;58.90
37052;DHT22;22964;52.272;13.356;2023-03-01T09:18:34;8.70;58.80
37052;DHT22;22964;52.272;13.356;2023-03-01T09:21:03;8.80;57.40
37052;DHT22;22964;52.272;13.356;2023-03-01T09:23:36;8.90;56.60
37052;DHT22;22964;52.272;13.356;2023-03-01T09:26:07;8.90;56.40
37052;DHT22;22964;52.272;13.356;2023-03-01T09:28:35;8.90;56.20
37052;DHT22;22964;52.272;13.356;2023-03-01T09:31:01;9.00;56.00
37052;DHT22;22964;52.272;13.356;2023-03-01T09:33:31;9.00;56.70
37052;DHT22;22964;52.272;13.356;2023-03-01T09:35:58;9.00;55.50
37052;DHT22;22964;52.272;13.356;2023-03-01T09:38:24;9.10;55.90
37052;DHT22;22964;52.272;13.356;2023-03-01T09:40:50;9.10;56.10
37052;DHT22;22964;52.272;13.356;2023-03-01T09:43:42;9.20;56.00
37052;DHT22;22964;52.272;13.356;2023-03-01T09:46:12;9.30;55.40
37052;DHT22;22964;52.272;13.356;2023-03-01T09:48:48;9.40;55.90
37052;DHT22;22964;52.272;13.356;2023-03-01T09:51:29;9.50;55.90
37052;DHT22;22964;52.272;13.356;2023-03-01T09:53:56;9.60;56.20
37052;DHT22;22964;52.272;13.356;2023-03-01T09:56:47;9.60;56.10
37052;DHT22;22964;52.272;13.356;2023-03-01T10:04:51;10.00;54.20
37052;DHT22;22964;52.272;13.356;2023-03-01T10:07:30;10.10;54.80
37052;DHT22;22964;52.272;13.356;2023-03-01T10:09:58;10.20;54.00
37052;DHT22;22964;52.272;13.356;2023-03-01T10:12:31;10.30;53.00
37052;DHT22;22964;52.272;13.356;2023-03-01T10:17:35;10.40;52.80
37052;DHT22;22964;52.272;13.356;2023-03-01T10:20:22;10.40;52.90
37052;DHT22;22964;52.272;13.356;2023-03-01T10:22:49;10.50;51.80
37052;DHT22;22964;52.272;13.356;2023-03-01T10:28:16;10.50;52.50
37052;DHT22;22964;52.272;13.356;2023-03-01T10:30:42;10.60;52.40
37052;DHT22;22964;52.272;13.356;2023-03-01T10:33:23;10.60;52.50
37052;DHT22;22964;52.272;13.356;2023-03-01T10:35:50;10.70;52.00
37052;DHT22;22964;52.272;13.356;2023-03-01T10:38:17;10.80;52.70
37052;DHT22;22964;52.272;13.356;2023-03-01T10:40:55;10.90;52.90
37052;DHT22;22964;52.272;13.356;2023-03-01T10:43:40;11.00;52.00
37052;DHT22;22964;52.272;13.356;2023-03-01T10:46:30;11.20;51.30
37052;DHT22;22964;52.272;13.356;2023-03-01T10:49:18;11.30;49.80
37052;DHT22;22964;52.272;13.356;2023-03-01T10:51:46;11.40;49.50
37052;DHT22;22964;52.272;13.356;2023-03-01T10:54:32;11.40;49.60
37052;DHT22;22964;52.272;13.356;2023-03-01T10:57:00;11.50;49.80
37052;DHT22;22964;52.272;13.356;2023-03-01T10:59:28;11.50;51.10
37052;DHT22;22964;52.272;13.356;2023-03-01T11:02:18;11.60;51.30
37052;DHT22;22964;52.272;13.356;2023-03-01T11:07:22;11.80;50.30
37052;DHT22;22964;52.272;13.356;2023-03-01T11:09:48;12.00;50.30
37052;DHT22;22964;52.272;13.356;2023-03-01T11:12:15;12.10;50.00
37052;DHT22;22964;52.272;13.356;2023-03-01T11:14:53;12.20;49.60
37052;DHT22;22964;52.272;13.356;2023-03-01T11:17:30;12.20;47.30
37052;DHT22;22964;52.272;13.356;2023-03-01T11:20:27;12.30;48.00
37052;DHT22;22964;52.272;13.356;2023-03-01T11:22:58;12.30;48.20
37052;DHT22;22964;52.272;13.356;2023-03-01T11:25:39;12.30;49.60
37052;DHT22;22964;52.272;13.356;2023-03-01T11:28:13;12.40;48.90
37052;DHT22;22964;52.272;13.356;2023-03-01T11:36:13;12.80;48.80
37052;DHT22;22964;52.272;13.356;2023-03-01T11:38:41;13.00;48.50
37052;DHT22;22964;52.272;13.356;2023-03-01T11:41:18;13.10;49.10
37052;DHT22;22964;52.272;13.356;2023-03-01T11:43:59;13.20;48.80
37052;DHT22;22964;52.272;13.356;2023-03-01T11:51:59;13.60;48.10
37052;DHT22;22964;52.272;13.356;2023-03-01T12:16:09;13.70;45.80
37052;DHT22;22964;52.272;13.356;2023-03-01T12:30:13;13.60;42.20
37052;DHT22;22964;52.272;13.356;2023-03-01T12:32:52;13.60;41.80
37052;DHT22;22964;52.272;13.356;2023-03-01T12:46:09;12.90;41.70
37052;DHT22;22964;52.272;13.356;2023-03-01T12:51:33;12.90;42.20
37052;DHT22;22964;52.272;13.356;2023-03-01T12:54:05;12.90;41.60
37052;DHT22;22964;52.272;13.356;2023-03-01T12:56:32;12.90;42.50
37052;DHT22;22964;52.272;13.356;2023-03-01T13:02:05;12.90;42.10
37052;DHT22;22964;52.272;13.356;2023-03-01T13:07:35;12.80;41.40
37052;DHT22;22964;52.272;13.356;2023-03-01T13:17:51;12.90;44.70
37052;DHT22;22964;52.272;13.356;2023-03-01T13:20:20;13.00;44.40
37052;DHT22;22964;52.272;13.356;2023-03-01T13:22:47;13.10;44.90
37052;DHT22;22964;52.272;13.356;2023-03-01T13:25:16;13.30;45.10
37052;DHT22;22964;52.272;13.356;2023-03-01T13:27:42;13.40;44.90
37052;DHT22;22964;52.272;13.356;2023-03-01T13:35:54;13.90;43.80
37052;DHT22;22964;52.272;13.356;2023-03-01T13:41:12;14.20;43.30
37052;DHT22;22964;52.272;13.356;2023-03-01T13:43:41;14.30;44.10
37052;DHT22;22964;52.272;13.356;2023-03-01T13:46:20;14.40;42.70
37052;DHT22;22964;52.272;13.356;2023-03-01T13:48:50;14.50;42.90
37052;DHT22;22964;52.272;13.356;2023-03-01T13:51:22;14.60;42.90
37052;DHT22;22964;52.272;13.356;2023-03-01T13:53:48;14.60;42.50
37052;DHT22;22964;52.272;13.356;2023-03-01T13:56:37;14.60;42.90
37052;DHT22;22964;52.272;13.356;2023-03-01T13:59:21;14.60;41.50
37052;DHT22;22964;52.272;13.356;2023-03-01T14:01:58;14.60;41.60
37052;DHT22;22964;52.272;13.356;2023-03-01T14:04:27;14.60;42.30
37052;DHT22;22964;52.272;13.356;2023-03-01T14:07:16;14.60;42.80
37052;DHT22;22964;52.272;13.356;2023-03-01T14:09:45;14.60;41.10
37052;DHT22;22964;52.272;13.356;2023-03-01T14:15:19;14.60;41.30
37052;DHT22;22964;52.272;13.356;2023-03-01T14:20:29;14.60;38.70
37052;DHT22;22964;52.272;13.356;2023-03-01T14:22:58;14.50;38.80
37052;DHT22;22964;52.272;13.356;2023-03-01T14:25:30;14.50;38.10
37052;DHT22;22964;52.272;13.356;2023-03-01T14:30:52;14.20;38.90
37052;DHT22;22964;52.272;13.356;2023-03-01T14:36:07;14.00;38.50
37052;DHT22;22964;52.272;13.356;2023-03-01T14:41:12;13.70;38.50
37052;DHT22;22964;52.272;13.356;2023-03-01T14:43:52;13.60;39.40
37052;DHT22;22964;52.272;13.356;2023-03-01T14:46:39;13.40;39.50
37052;DHT22;22964;52.272;13.356;2023-03-01T14:49:18;13.30;39.60
37052;DHT22;22964;52.272;13.356;2023-03-01T14:52:02;13.20;39.50
37052;DHT22;22964;52.272;13.356;2023-03-01T14:57:04;13.00;40.70
37052;DHT22;22964;52.272;13.356;2023-03-01T14:59:29;12.80;40.30
37052;DHT22;22964;52.272;13.356;2023-03-01T15:01:57;12.80;40.30
37052;DHT22;22964;52.272;13.356;2023-03-01T15:04:25;12.70;40.90
37052;DHT22;22964;52.272;13.356;2023-03-01T15:06:55;12.60;41.40
37052;DHT22;22964;52.272;13.356;2023-03-01T15:09:32;12.60;42.10
37052;DHT22;22964;52.272;13.356;2023-03-01T15:11:59;12.60;42.10
37052;DHT22;22964;52.272;13.356;2023-03-01T15:14:42;12.60;42.20
37052;DHT22;22964;52.272;13.356;2023-03-01T15:19:50;12.50;43.00
37052;DHT22;22964;52.272;13.356;2023-03-01T15:22:16;12.50;42.70
37052;DHT22;22964;52.272;13.356;2023-03-01T15:24:47;12.50;42.10
37052;DHT22;22964;52.272;13.356;2023-03-01T15:27:21;12.50;42.90
37052;DHT22;22964;52.272;13.356;2023-03-01T15:29:52;12.40;42.60
37052;DHT22;22964;52.272;13.356;2023-03-01T15:34:54;12.40;42.10
37052;DHT22;22964;52.272;13.356;2023-03-01T15:40:37;12.20;42.50
37052;DHT22;22964;52.272;13.356;2023-03-01T15:43:44;12.10;42.70
37052;DHT22;22964;52.272;13.356;2023-03-01T15:46:28;12.10;42.80
37052;DHT22;22964;52.272;13.356;2023-03-01T15:48:57;12.10;43.70
37052;DHT22;22964;52.272;13.356;2023-03-01T15:51:37;12.00;43.80
37052;DHT22;22964;52.272;13.356;2023-03-01T15:54:17;11.90;44.10
37052;DHT22;22964;52.272;13.356;2023-03-01T15:56:44;11.90;44.60
37052;DHT22;22964;52.272;13.356;2023-03-01T15:59:11;11.80;44.70
37052;DHT22;22964;52.272;13.356;2023-03-01T16:01:41;11.80;44.80
37052;DHT22;22964;52.272;13.356;2023-03-01T16:04:11;11.80;44.80
37052;DHT22;22964;52.272;13.356;2023-03-01T16:06:54;11.60;44.60
37052;DHT22;22964;52.272;13.356;2023-03-01T16:09:24;11.60;45.00
37052;DHT22;22964;52.272;13.356;2023-03-01T16:11:52;11.50;45.20
37052;DHT22;22964;52.272;13.356;2023-03-01T16:14:18;11.40;45.70
37052;DHT22;22964;52.272;13.356;2023-03-01T16:16:45;11.30;45.80
37052;DHT22;22964;52.272;13.356;2023-03-01T16:19:11;11.20;45.80
37052;DHT22;22964;52.272;13.356;2023-03-01T16:21:37;11.20;46.40
37052;DHT22;22964;52.272;13.356;2023-03-01T16:24:04;11.10;45.60
37052;DHT22;22964;52.272;13.356;2023-03-01T16:26:30;11.00;45.50
37052;DHT22;22964;52.272;13.356;2023-03-01T16:28:56;10.90;45.50
37052;DHT22;22964;52.272;13.356;2023-03-01T16:31:23;10.80;45.40
37052;DHT22;22964;52.272;13.356;2023-03-01T16:33:49;10.80;45.40
37052;DHT22;22964;52.272;13.356;2023-03-01T16:36:18;10.70;45.40
37052;DHT22;22964;52.272;13.356;2023-03-01T16:38:44;10.60;45.40
37052;DHT22;22964;52.272;13.356;2023-03-01T16:41:15;10.60;45.50
37052;DHT22;22964;52.272;13.356;2023-03-01T16:43:42;10.50;45.70
37052;DHT22;22964;52.272;13.356;2023-03-01T16:46:25;10.50;45.90
37052;DHT22;22964;52.272;13.356;2023-03-01T16:48:51;10.40;45.40
37052;DHT22;22964;52.272;13.356;2023-03-01T16:51:18;10.40;45.50
37052;DHT22;22964;52.272;13.356;2023-03-01T16:53:44;10.40;45.80
37052;DHT22;22964;52.272;13.356;2023-03-01T16:56:11;10.30;45.80
37052;DHT22;22964;52.272;13.356;2023-03-01T16:58:38;10.30;45.90
37052;DHT22;22964;52.272;13.356;2023-03-01T17:01:22;10.20;45.90
37052;DHT22;22964;52.272;13.356;2023-03-01T17:03:51;10.20;46.00
37052;DHT22;22964;52.272;13.356;2023-03-01T17:06:20;10.10;46.10
37052;DHT22;22964;52.272;13.356;2023-03-01T17:08:46;10.10;46.20
37052;DHT22;22964;52.272;13.356;2023-03-01T17:11:16;10.00;46.20
37052;DHT22;22964;52.272;13.356;2023-03-01T17:13:42;9.90;46.10
37052;DHT22;22964;52.272;13.356;2023-03-01T17:16:12;9.90;45.90
37052;DHT22;22964;52.272;13.356;2023-03-01T17:18:38;9.80;45.90
37052;DHT22;22964;52.272;13.356;2023-03-01T17:21:05;9.70;46.00
37052;DHT22;22964;52.272;13.356;2023-03-01T17:23:32;9.70;46.10
37052;DHT22;22964;52.272;13.356;2023-03-01T17:25:58;9.60;46.20
37052;DHT22;22964;52.272;13.356;2023-03-01T17:28:27;9.60;46.40
37052;DHT22;22964;52.272;13.356;2023-03-01T17:30:53;9.50;46.40
37052;DHT22;22964;52.272;13.356;2023-03-01T17:33:20;9.40;46.40
37052;DHT22;22964;52.272;13.356;2023-03-01T17:35:46;9.40;46.40
37052;DHT22;22964;52.272;13.356;2023-03-01T17:38:16;9.30;46.40
37052;DHT22;22964;52.272;13.356;2023-03-01T17:40:43;9.20;46.30
37052;DHT22;22964;52.272;13.356;2023-03-01T17:43:13;9.20;46.40
37052;DHT22;22964;52.272;13.356;2023-03-01T17:45:39;9.10;46.40
37052;DHT22;22964;52.272;13.356;2023-03-01T17:48:05;9.10;46.30
37052;DHT22;22964;52.272;13.356;2023-03-01T17:50:32;9.00;46.30
37052;DHT22;22964;52.272;13.356;2023-03-01T17:52:58;8.90;46.20
37052;DHT22;22964;52.272;13.356;2023-03-01T17:55:24;8.90;46.40
37052;DHT22;22964;52.272;13.356;2023-03-01T17:57:50;8.80;46.40